createdAt,value
2023-11-17T00:02:26.620Z,100781.25
2023-11-17T00:04:54.787Z,100784.69
2023-11-17T00:07:25.349Z,100789.03
2023-11-17T00:09:53.221Z,100786.44
2023-11-17T00:12:21.181Z,100789.00
2023-11-17T00:14:49.226Z,100789.88
2023-11-17T00:17:18.515Z,100797.69
2023-11-17T00:19:47.101Z,100804.59
2023-11-17T00:22:15.852Z,100810.63
2023-11-17T00:24:45.327Z,100808.06
2023-11-17T00:27:13.512Z,100819.31
2023-11-17T00:29:41.477Z,100820.16
2023-11-17T00:32:09.391Z,100818.44
2023-11-17T00:34:39.512Z,100826.22
2023-11-17T00:37:08.804Z,100830.56
2023-11-17T00:39:38.342Z,100840.94
2023-11-17T00:42:09.237Z,100843.53
2023-11-17T00:44:37.445Z,100837.47
2023-11-17T00:47:06.656Z,100840.91
2023-11-17T00:49:35.945Z,100843.47
2023-11-17T00:52:06.675Z,100847.81
2023-11-17T00:54:43.514Z,100852.97
2023-11-17T00:57:12.725Z,100863.31
2023-11-17T00:59:41.083Z,100863.31
2023-11-17T01:02:12.763Z,100868.50
2023-11-17T01:04:40.672Z,100871.91
2023-11-17T01:07:10.173Z,100881.44
2023-11-17T01:09:38.049Z,100877.91
2023-11-17T01:12:06.579Z,100884.84
2023-11-17T01:14:34.438Z,100892.59
2023-11-17T01:17:02.386Z,100898.63
2023-11-17T01:19:30.444Z,100908.97
2023-11-17T01:22:00.965Z,100903.78
2023-11-17T01:24:30.420Z,100916.72
2023-11-17T01:26:58.431Z,100920.97
2023-11-17T01:29:26.346Z,100928.72
2023-11-17T01:31:54.919Z,100930.41
2023-11-17T01:34:23.130Z,100921.72
2023-11-17T01:36:53.160Z,100932.03
2023-11-17T01:39:22.254Z,100948.44
2023-11-17T01:41:52.243Z,100949.25
2023-11-17T01:44:22.258Z,100953.56
2023-11-17T01:46:52.378Z,100956.13
2023-11-17T01:49:23.273Z,100956.97
2023-11-17T01:51:52.857Z,100970.78
2023-11-17T01:54:21.962Z,100969.88
2023-11-17T01:56:54.253Z,100980.22
2023-11-17T01:59:22.633Z,100981.09
2023-11-17T02:01:52.088Z,100984.53
2023-11-17T02:04:20.452Z,100977.59
2023-11-17T02:06:57.029Z,100989.72
2023-11-17T02:09:35.892Z,100986.28
2023-11-17T02:12:15.883Z,100986.25
2023-11-17T02:14:49.813Z,100992.25
2023-11-17T02:17:26.734Z,100984.47
2023-11-17T02:19:55.635Z,100987.09
2023-11-17T02:22:31.552Z,100987.09
2023-11-17T02:25:11.880Z,100997.47
2023-11-17T02:27:51.586Z,101003.53
2023-11-17T02:30:21.790Z,101001.78
2023-11-17T02:32:51.578Z,101012.19
2023-11-17T02:35:19.993Z,101010.47
2023-11-17T02:37:51.659Z,101007.03
2023-11-17T02:40:20.820Z,101007.91
2023-11-17T02:42:50.475Z,101012.25
2023-11-17T02:45:21.770Z,101003.56
2023-11-17T02:47:53.456Z,101011.34
2023-11-17T02:50:32.523Z,101009.63
2023-11-17T02:53:18.340Z,101007.00
2023-11-17T02:55:47.382Z,101016.44
2023-11-17T02:58:16.896Z,101020.72
2023-11-17T03:00:48.652Z,101019.00
2023-11-17T03:03:16.737Z,101028.47
2023-11-17T03:05:44.684Z,101024.91
2023-11-17T03:08:14.417Z,101028.31
2023-11-17T03:10:42.512Z,101025.69
2023-11-17T03:13:17.394Z,101023.91
2023-11-17T03:15:48.078Z,101030.72
2023-11-17T03:18:16.093Z,101028.06
2023-11-17T03:20:45.254Z,101031.47
2023-11-17T03:23:13.209Z,101033.94
2023-11-17T03:25:41.139Z,101035.63
2023-11-17T03:28:14.376Z,101038.16
2023-11-17T03:30:42.528Z,101043.25
2023-11-17T03:33:13.016Z,101043.19
2023-11-17T03:35:42.043Z,101049.19
2023-11-17T03:38:14.846Z,101050.81
2023-11-17T03:40:46.124Z,101051.66
2023-11-17T03:43:15.505Z,101054.25
2023-11-17T03:45:47.697Z,101062.78
2023-11-17T03:48:17.064Z,101051.50
2023-11-17T03:50:45.123Z,101060.06
2023-11-17T03:53:13.150Z,101062.66
2023-11-17T03:55:44.028Z,101060.03
2023-11-17T03:58:12.161Z,101060.00
2023-11-17T04:00:40.107Z,101050.44
2023-11-17T04:03:10.091Z,101052.97
2023-11-17T04:05:39.528Z,101059.91
2023-11-17T04:08:07.507Z,101055.50
2023-11-17T04:10:35.717Z,101053.75
2023-11-17T04:13:03.662Z,101053.72
2023-11-17T04:15:31.632Z,101049.34
2023-11-17T04:17:59.588Z,101053.63
2023-11-17T04:20:27.538Z,101052.75
2023-11-17T04:22:57.125Z,101047.56
2023-11-17T04:25:25.081Z,101050.09
2023-11-17T04:27:53.040Z,101056.06
2023-11-17T04:30:21.039Z,101060.28
2023-11-17T04:32:48.987Z,101053.38
2023-11-17T04:35:17.106Z,101056.78
2023-11-17T04:37:44.941Z,101066.34
2023-11-17T04:40:17.293Z,101068.06
2023-11-17T04:42:45.239Z,101081.91
2023-11-17T04:45:14.130Z,101082.75
2023-11-17T04:47:42.931Z,101097.38
2023-11-17T04:50:11.688Z,101093.94
2023-11-17T04:52:39.679Z,101094.00
2023-11-17T04:55:08.304Z,101097.50
2023-11-17T04:57:38.331Z,101094.06
2023-11-17T05:00:07.913Z,101100.19
2023-11-17T05:02:35.997Z,101095.09
2023-11-17T05:05:05.566Z,101096.91
2023-11-17T05:07:33.655Z,101090.16
2023-11-17T05:10:01.664Z,101100.50
2023-11-17T05:12:29.628Z,101097.91
2023-11-17T05:14:59.102Z,101101.47
2023-11-17T05:17:30.784Z,101100.63
2023-11-17T05:19:58.801Z,101116.25
2023-11-17T05:22:26.724Z,101110.28
2023-11-17T05:25:00.135Z,101114.63
2023-11-17T05:27:28.128Z,101106.06
2023-11-17T05:29:56.907Z,101103.50
2023-11-17T05:32:27.254Z,101107.84
2023-11-17T05:34:55.121Z,101107.03
2023-11-17T05:37:23.937Z,101107.94
2023-11-17T05:39:52.023Z,101107.97
2023-11-17T05:42:19.957Z,101107.19
2023-11-17T05:44:47.811Z,101112.41
2023-11-17T05:47:15.748Z,101115.03
2023-11-17T05:49:47.212Z,101116.78
2023-11-17T05:52:17.107Z,101106.47
2023-11-17T05:54:46.692Z,101109.06
2023-11-17T05:57:15.087Z,101105.63
2023-11-17T05:59:44.947Z,101110.84
2023-11-17T06:02:15.751Z,101116.09
2023-11-17T06:04:44.164Z,101118.66
2023-11-17T06:07:13.523Z,101120.41
2023-11-17T06:09:42.570Z,101118.69
2023-11-17T06:12:11.428Z,101114.44
2023-11-17T06:14:42.022Z,101116.97
2023-11-17T06:17:10.725Z,101115.28
2023-11-17T06:19:38.914Z,101117.88
2023-11-17T06:22:10.147Z,101123.03
2023-11-17T06:24:39.985Z,101126.59
2023-11-17T06:27:11.872Z,101126.53
2023-11-17T06:29:39.747Z,101122.22
2023-11-17T06:32:09.299Z,101123.97
2023-11-17T06:34:37.911Z,101129.19
2023-11-17T06:37:06.384Z,101127.50
2023-11-17T06:39:34.507Z,101132.69
2023-11-17T06:42:07.692Z,101138.72
2023-11-17T06:44:37.013Z,101130.97
2023-11-17T06:47:07.595Z,101135.31
2023-11-17T06:49:35.797Z,101138.78
2023-11-17T06:52:08.545Z,101137.91
2023-11-17T06:54:36.607Z,101144.00
2023-11-17T06:57:08.094Z,101143.13
2023-11-17T06:59:36.020Z,101137.09
2023-11-17T07:02:04.736Z,101133.59
2023-11-17T07:04:33.492Z,101149.22
2023-11-17T07:07:01.958Z,101150.97
2023-11-17T07:09:33.348Z,101151.88
2023-11-17T07:12:03.098Z,101153.56
2023-11-17T07:14:33.667Z,101145.78
2023-11-17T07:17:05.774Z,101150.97
2023-11-17T07:19:35.268Z,101151.00
2023-11-17T07:22:03.745Z,101155.34
2023-11-17T07:24:31.971Z,101160.53
2023-11-17T07:27:02.523Z,101154.50
2023-11-17T07:29:33.112Z,101161.47
2023-11-17T07:32:01.253Z,101156.34
2023-11-17T07:34:29.349Z,101158.09
2023-11-17T07:36:57.341Z,101158.97
2023-11-17T07:39:26.140Z,101163.28
2023-11-17T07:41:54.109Z,101165.00
2023-11-17T07:44:22.883Z,101165.84
2023-11-17T07:46:52.393Z,101174.56
2023-11-17T07:49:21.553Z,101171.19
2023-11-17T07:51:50.176Z,101169.44
2023-11-17T07:54:19.149Z,101173.84
2023-11-17T07:56:48.162Z,101171.31
2023-11-17T07:59:20.196Z,101179.97
2023-11-17T08:01:48.475Z,101181.84
2023-11-17T08:04:19.540Z,101181.81
2023-11-17T08:06:47.961Z,101178.38
2023-11-17T08:09:18.135Z,101190.56
2023-11-17T08:11:46.471Z,101186.31
2023-11-17T08:14:14.461Z,101195.03
2023-11-17T08:16:42.613Z,101192.53
2023-11-17T08:19:18.709Z,101196.84
2023-11-17T08:21:55.887Z,101195.03
2023-11-17T08:24:24.622Z,101201.19
2023-11-17T08:26:53.236Z,101189.94
2023-11-17T08:29:23.558Z,101190.81
2023-11-17T08:31:53.185Z,101195.25
2023-11-17T08:34:22.394Z,101197.03
2023-11-17T08:36:51.155Z,101199.81
2023-11-17T08:39:28.431Z,101199.78
2023-11-17T08:41:57.479Z,101199.94
2023-11-17T08:44:25.980Z,101207.00
2023-11-17T08:46:53.997Z,101205.22
2023-11-17T08:49:22.328Z,101207.84
2023-11-17T08:51:50.452Z,101205.19
2023-11-17T08:54:20.441Z,101203.53
2023-11-17T08:56:49.555Z,101196.56
2023-11-17T08:59:18.086Z,101214.88
2023-11-17T09:01:46.553Z,101207.19
2023-11-17T09:04:14.779Z,101208.19
2023-11-17T09:06:42.761Z,101203.81
2023-11-17T09:09:24.089Z,101211.66
2023-11-17T09:12:01.746Z,101209.88
2023-11-17T09:14:32.727Z,101205.50
2023-11-17T09:17:04.169Z,101217.66
2023-11-17T09:19:37.205Z,101221.94
2023-11-17T09:22:06.111Z,101215.03
2023-11-17T09:24:34.253Z,101217.59
2023-11-17T09:27:05.085Z,101230.63
2023-11-17T09:29:34.658Z,101229.72
2023-11-17T09:32:02.863Z,101233.25
2023-11-17T09:34:30.839Z,101236.72
2023-11-17T09:36:59.108Z,101235.88
2023-11-17T09:39:27.488Z,101224.59
2023-11-17T09:41:57.900Z,101230.72
2023-11-17T09:44:29.543Z,101228.97
2023-11-17T09:47:09.232Z,101236.75
2023-11-17T09:49:40.011Z,101232.41
2023-11-17T09:52:09.041Z,101236.72
2023-11-17T09:54:38.712Z,101231.53
2023-11-17T09:57:10.191Z,101234.13
2023-11-17T09:59:44.107Z,101244.50
2023-11-17T10:02:15.322Z,101246.31
2023-11-17T10:04:43.329Z,101246.31
2023-11-17T10:07:13.011Z,101256.69
2023-11-17T10:09:45.277Z,101257.53
2023-11-17T10:12:16.041Z,101254.06
2023-11-17T10:14:46.303Z,101247.13
2023-11-17T10:17:19.095Z,101246.25
2023-11-17T10:19:50.509Z,101247.97
2023-11-17T10:22:18.483Z,101244.50
2023-11-17T10:24:48.270Z,101241.88
2023-11-17T10:27:19.133Z,101249.66
2023-11-17T10:29:50.758Z,101241.00
2023-11-17T10:32:36.937Z,101240.97
2023-11-17T10:35:14.207Z,101245.34
2023-11-17T10:37:42.166Z,101241.88
2023-11-17T10:40:13.679Z,101241.94
2023-11-17T10:42:41.845Z,101238.50
2023-11-17T10:45:20.849Z,101241.13
2023-11-17T10:47:49.125Z,101235.97
2023-11-17T10:50:18.969Z,101244.63
2023-11-17T10:52:47.692Z,101241.22
2023-11-17T10:55:17.124Z,101238.53
2023-11-17T10:58:05.459Z,101246.34
2023-11-17T11:00:39.116Z,101240.31
2023-11-17T11:03:11.302Z,101244.63
2023-11-17T11:05:40.375Z,101242.06
2023-11-17T11:08:12.576Z,101236.84
2023-11-17T11:10:41.984Z,101240.34
2023-11-17T11:13:09.987Z,101239.53
2023-11-17T11:15:39.235Z,101239.56
2023-11-17T11:18:07.762Z,101237.00
2023-11-17T11:20:36.026Z,101243.97
2023-11-17T11:23:04.564Z,101242.25
2023-11-17T11:25:33.375Z,101242.22
2023-11-17T11:28:04.392Z,101241.38
2023-11-17T11:30:34.573Z,101229.28
2023-11-17T11:33:04.105Z,101237.97
2023-11-17T11:35:32.022Z,101238.00
2023-11-17T11:38:00.072Z,101231.03
2023-11-17T11:40:28.153Z,101223.28
2023-11-17T11:42:56.007Z,101239.78
2023-11-17T11:45:25.466Z,101235.47
2023-11-17T11:47:58.657Z,101234.59
2023-11-17T11:50:28.956Z,101238.03
2023-11-17T11:53:18.586Z,101238.97
2023-11-17T11:55:46.567Z,101238.06
2023-11-17T11:58:14.501Z,101243.25
2023-11-17T12:00:46.826Z,101242.38
2023-11-17T12:03:15.891Z,101244.16
2023-11-17T12:05:46.972Z,101249.38
2023-11-17T12:08:28.693Z,101247.66
2023-11-17T12:11:05.412Z,101249.44
2023-11-17T12:13:44.732Z,101252.94
2023-11-17T12:16:15.354Z,101245.97
2023-11-17T12:18:47.592Z,101252.94
2023-11-17T12:21:19.056Z,101247.72
2023-11-17T12:23:56.151Z,101258.13
2023-11-17T12:26:26.447Z,101260.75
2023-11-17T12:28:55.562Z,101268.53
2023-11-17T12:31:24.649Z,101273.75
2023-11-17T12:33:55.119Z,101280.69
2023-11-17T12:36:25.935Z,101284.16
2023-11-17T12:38:55.388Z,101273.75
2023-11-17T12:41:28.067Z,101276.31
2023-11-17T12:43:57.819Z,101275.47
2023-11-17T12:46:26.636Z,101284.16
2023-11-17T12:48:54.860Z,101288.50
2023-11-17T12:51:28.822Z,101288.53
2023-11-17T12:53:58.045Z,101290.28
2023-11-17T12:56:27.411Z,101291.16
2023-11-17T12:58:56.234Z,101282.47
2023-11-17T13:01:26.104Z,101286.84
2023-11-17T13:03:57.437Z,101291.22
2023-11-17T13:06:28.855Z,101290.34
2023-11-17T13:08:57.010Z,101284.25
2023-11-17T13:11:33.426Z,101291.22
2023-11-17T13:14:02.587Z,101290.38
2023-11-17T13:16:32.181Z,101290.34
2023-11-17T13:19:01.838Z,101294.72
2023-11-17T13:21:32.265Z,101298.19
2023-11-17T13:24:00.677Z,101299.91
2023-11-17T13:26:30.614Z,101305.97
2023-11-17T13:28:59.004Z,101306.00
2023-11-17T13:31:29.321Z,101317.28
2023-11-17T13:33:58.951Z,101321.63
2023-11-17T13:36:33.231Z,101309.50
2023-11-17T13:39:16.748Z,101316.44
2023-11-17T13:41:47.445Z,101317.28
2023-11-17T13:44:28.427Z,101335.53
2023-11-17T13:47:01.809Z,101347.69
2023-11-17T13:49:35.624Z,101348.50
2023-11-17T13:52:10.035Z,101360.66
2023-11-17T13:54:42.153Z,101351.09
2023-11-17T13:57:10.588Z,101352.84
2023-11-17T13:59:38.678Z,101349.38
2023-11-17T14:02:10.643Z,101345.00
2023-11-17T14:04:39.400Z,101349.34
2023-11-17T14:07:10.399Z,101357.16
2023-11-17T14:09:41.297Z,101364.97
2023-11-17T14:12:10.308Z,101371.03
2023-11-17T14:14:42.239Z,101359.72
2023-11-17T14:17:11.890Z,101362.38
2023-11-17T14:19:39.967Z,101366.72
2023-11-17T14:22:09.957Z,101382.34
2023-11-17T14:24:41.744Z,101393.63
2023-11-17T14:27:12.263Z,101397.97
2023-11-17T14:29:44.297Z,101397.09
2023-11-17T14:32:16.415Z,101397.09
2023-11-17T14:34:46.009Z,101395.38
2023-11-17T14:37:14.342Z,101402.31
2023-11-17T14:39:43.826Z,101396.22
2023-11-17T14:42:11.962Z,101407.50
2023-11-17T14:44:40.372Z,101417.88
2023-11-17T14:47:08.493Z,101423.88
2023-11-17T14:49:36.623Z,101422.16
2023-11-17T14:52:06.785Z,101423.00
2023-11-17T14:54:34.800Z,101428.16
2023-11-17T14:57:04.170Z,101432.56
2023-11-17T14:59:32.137Z,101439.47
2023-11-17T15:02:00.293Z,101442.91
2023-11-17T15:04:30.384Z,101444.63
2023-11-17T15:07:00.533Z,101453.31
2023-11-17T15:09:28.518Z,101443.75
2023-11-17T15:11:56.386Z,101448.91
2023-11-17T15:14:27.861Z,101451.41
2023-11-17T15:16:55.975Z,101460.09
2023-11-17T15:19:27.083Z,101464.44
2023-11-17T15:21:55.002Z,101457.41
2023-11-17T15:24:25.346Z,101465.13
2023-11-17T15:26:57.161Z,101463.31
2023-11-17T15:29:31.292Z,101466.69
2023-11-17T15:32:07.739Z,101469.19
2023-11-17T15:34:36.117Z,101465.63
2023-11-17T15:37:07.415Z,101468.13
2023-11-17T15:39:35.392Z,101480.16
2023-11-17T15:42:03.638Z,101471.47
2023-11-17T15:44:33.375Z,101474.03
2023-11-17T15:47:03.379Z,101481.78
2023-11-17T15:49:31.443Z,101483.53
2023-11-17T15:51:59.313Z,101481.75
2023-11-17T15:54:27.334Z,101480.84
2023-11-17T15:56:55.358Z,101477.34
2023-11-17T15:59:23.302Z,101487.66
2023-11-17T16:01:53.455Z,101485.84
2023-11-17T16:04:23.014Z,101496.06
2023-11-17T16:06:51.089Z,101505.47
2023-11-17T16:09:22.785Z,101504.50
2023-11-17T16:11:52.483Z,101518.28
2023-11-17T16:14:20.941Z,101510.44
2023-11-17T16:16:49.084Z,101515.53
2023-11-17T16:19:20.551Z,101515.44
2023-11-17T16:21:48.661Z,101517.03
2023-11-17T16:24:17.805Z,101525.59
2023-11-17T16:26:45.928Z,101524.66
2023-11-17T16:29:13.991Z,101522.84
2023-11-17T16:31:42.195Z,101526.22
2023-11-17T16:34:12.189Z,101535.63
2023-11-17T16:36:47.030Z,101538.19
2023-11-17T16:39:20.221Z,101538.97
2023-11-17T16:41:50.670Z,101535.38
2023-11-17T16:44:18.749Z,101540.47
2023-11-17T16:46:50.535Z,101558.56
2023-11-17T16:49:20.390Z,101548.13
2023-11-17T16:51:51.251Z,101545.41
2023-11-17T16:54:19.390Z,101565.19
2023-11-17T16:56:47.481Z,101556.47
2023-11-17T16:59:15.566Z,101566.75
2023-11-17T17:01:43.574Z,101570.03
2023-11-17T17:04:11.035Z,101569.03
2023-11-17T17:06:39.058Z,101573.38
2023-11-17T17:09:10.009Z,101567.28
2023-11-17T17:11:37.986Z,101577.59
2023-11-17T17:14:16.954Z,101589.66
2023-11-17T17:16:51.425Z,101585.28
2023-11-17T17:19:22.278Z,101592.19
2023-11-17T17:21:50.946Z,101601.59
2023-11-17T17:24:20.247Z,101601.47
2023-11-17T17:26:49.461Z,101606.63
2023-11-17T17:29:17.680Z,101612.59
2023-11-17T17:31:45.857Z,101606.34
2023-11-17T17:34:17.023Z,101596.75
2023-11-17T17:36:45.011Z,101599.19
2023-11-17T17:39:17.801Z,101600.78
2023-11-17T17:41:48.626Z,101589.59
2023-11-17T17:44:17.393Z,101595.72
2023-11-17T17:46:47.036Z,101594.03
2023-11-17T17:49:17.781Z,101600.00
2023-11-17T17:51:45.980Z,101593.94
2023-11-17T17:54:15.439Z,101603.34
2023-11-17T17:56:43.518Z,101601.53
2023-11-17T17:59:14.342Z,101607.53
2023-11-17T18:01:42.501Z,101604.78
2023-11-17T18:04:10.614Z,101606.44
2023-11-17T18:06:38.687Z,101614.06
2023-11-17T18:09:10.887Z,101608.00
2023-11-17T18:11:39.641Z,101624.13
2023-11-17T18:14:07.727Z,101621.38
2023-11-17T18:16:38.171Z,101625.53
2023-11-17T18:19:07.797Z,101632.41
2023-11-17T18:21:35.850Z,101639.34
2023-11-17T18:24:03.960Z,101635.81
2023-11-17T18:26:38.442Z,101641.72
2023-11-17T18:29:13.292Z,101651.97
2023-11-17T18:31:43.966Z,101640.44
2023-11-17T18:34:12.348Z,101647.34
2023-11-17T18:36:41.266Z,101659.38
2023-11-17T18:39:12.473Z,101659.28
2023-11-17T18:41:42.039Z,101661.78
2023-11-17T18:44:10.204Z,101660.88
2023-11-17T18:46:40.635Z,101665.88
2023-11-17T18:49:11.114Z,101667.53
2023-11-17T18:51:40.295Z,101677.81
2023-11-17T18:54:08.469Z,101670.88
2023-11-17T18:56:36.388Z,101681.28
2023-11-17T18:59:04.657Z,101671.03
2023-11-17T19:01:32.680Z,101662.38
2023-11-17T19:04:00.855Z,101681.13
2023-11-17T19:06:30.258Z,101693.88
2023-11-17T19:08:58.244Z,101696.31
2023-11-17T19:11:26.343Z,101697.09
2023-11-17T19:13:54.332Z,101696.13
2023-11-17T19:16:22.783Z,101697.84
2023-11-17T19:18:50.894Z,101699.75
2023-11-17T19:21:19.349Z,101696.19
2023-11-17T19:23:48.684Z,101698.72
2023-11-17T19:26:17.278Z,101708.22
2023-11-17T19:28:45.543Z,101710.03
2023-11-17T19:31:14.945Z,101715.19
2023-11-17T19:33:43.011Z,101702.25
2023-11-17T19:36:12.082Z,101708.16
2023-11-17T19:38:40.036Z,101703.72
2023-11-17T19:41:09.389Z,101707.81
2023-11-17T19:43:39.482Z,101706.84
2023-11-17T19:46:09.463Z,101702.47
2023-11-17T19:48:37.402Z,101708.59
2023-11-17T19:51:07.161Z,101705.22
2023-11-17T19:53:35.107Z,101707.03
2023-11-17T19:56:05.248Z,101712.97
2023-11-17T19:58:34.672Z,101711.19
2023-11-17T20:01:04.592Z,101719.00
2023-11-17T20:03:32.654Z,101723.47
2023-11-17T20:06:00.666Z,101723.50
2023-11-17T20:08:28.556Z,101726.06
2023-11-17T20:10:57.509Z,101725.22
2023-11-17T20:13:26.086Z,101720.91
2023-11-17T20:15:56.191Z,101734.63
2023-11-17T20:18:27.892Z,101738.66
2023-11-17T20:20:56.210Z,101739.34
2023-11-17T20:23:24.185Z,101740.13
2023-11-17T20:25:52.145Z,101741.88
2023-11-17T20:28:21.332Z,101739.28
2023-11-17T20:30:49.750Z,101728.84
2023-11-17T20:33:19.376Z,101734.69
2023-11-17T20:35:48.963Z,101748.44
2023-11-17T20:38:16.901Z,101744.84
2023-11-17T20:40:44.931Z,101744.88
2023-11-17T20:43:14.852Z,101752.59
2023-11-17T20:45:44.384Z,101748.19
2023-11-17T20:48:12.453Z,101762.91
2023-11-17T20:50:41.859Z,101755.94
2023-11-17T20:53:10.569Z,101770.28
2023-11-17T20:55:38.572Z,101768.44
2023-11-17T20:58:08.541Z,101775.28
2023-11-17T21:00:39.928Z,101775.22
2023-11-17T21:03:08.604Z,101776.88
2023-11-17T21:05:38.131Z,101787.94
2023-11-17T21:08:11.714Z,101800.91
2023-11-17T21:10:39.738Z,101802.72
2023-11-17T21:13:09.041Z,101808.59
2023-11-17T21:15:37.092Z,101802.47
2023-11-17T21:18:05.382Z,101784.22
2023-11-17T21:20:35.878Z,101790.38
2023-11-17T21:23:04.376Z,101790.31
2023-11-17T21:25:37.257Z,101786.00
2023-11-17T21:28:06.751Z,101788.69
2023-11-17T21:30:34.926Z,101783.72
2023-11-17T21:33:02.842Z,101776.16
2023-11-17T21:35:32.432Z,101783.81
2023-11-17T21:38:00.476Z,101779.63
2023-11-17T21:40:28.980Z,101787.28
2023-11-17T21:42:58.361Z,101783.19
2023-11-17T21:45:26.284Z,101793.56
2023-11-17T21:47:56.211Z,101782.25
2023-11-17T21:50:26.482Z,101790.09
2023-11-17T21:52:56.557Z,101785.81
2023-11-17T21:55:24.766Z,101783.38
2023-11-17T21:57:55.743Z,101783.47
2023-11-17T22:00:28.665Z,101785.28
2023-11-17T22:02:57.103Z,101797.38
2023-11-17T22:05:25.418Z,101793.03
2023-11-17T22:07:53.444Z,101792.31
2023-11-17T22:10:21.682Z,101801.97
2023-11-17T22:12:50.494Z,101800.38
2023-11-17T22:15:20.119Z,101801.97
2023-11-17T22:17:50.486Z,101801.06
2023-11-17T22:20:20.094Z,101801.97
2023-11-17T22:22:50.045Z,101807.09
2023-11-17T22:25:20.109Z,101804.63
2023-11-17T22:27:48.860Z,101798.69
2023-11-17T22:30:23.340Z,101807.47
2023-11-17T22:32:56.864Z,101816.13
2023-11-17T22:35:26.167Z,101815.22
2023-11-17T22:37:55.693Z,101812.56
2023-11-17T22:40:25.117Z,101817.81
2023-11-17T22:42:53.865Z,101823.06
2023-11-17T22:45:23.062Z,101827.53
2023-11-17T22:47:52.053Z,101821.56
2023-11-17T22:50:23.000Z,101824.28
2023-11-17T22:52:52.985Z,101826.72
2023-11-17T22:55:22.202Z,101815.50
2023-11-17T22:57:50.665Z,101819.78
2023-11-17T23:00:36.145Z,101815.13
2023-11-17T23:03:05.296Z,101819.34
2023-11-17T23:05:34.980Z,101807.09
2023-11-17T23:08:03.679Z,101799.34
2023-11-17T23:10:33.653Z,101814.88
2023-11-17T23:13:02.927Z,101823.53
2023-11-17T23:15:31.348Z,101815.94
2023-11-17T23:17:59.829Z,101820.03
2023-11-17T23:20:28.423Z,101823.53
2023-11-17T23:22:58.381Z,101820.16
2023-11-17T23:25:29.734Z,101819.34
2023-11-17T23:27:58.316Z,101825.31
2023-11-17T23:30:26.295Z,101832.41
2023-11-17T23:32:54.637Z,101833.31
2023-11-17T23:35:22.637Z,101830.63
2023-11-17T23:37:50.649Z,101829.91
2023-11-17T23:40:20.927Z,101830.94
2023-11-17T23:42:49.738Z,101825.75
2023-11-17T23:45:18.751Z,101830.09
2023-11-17T23:47:47.206Z,101829.31
2023-11-17T23:50:15.252Z,101821.69
2023-11-17T23:52:43.365Z,101826.84
2023-11-17T23:55:17.250Z,101822.72
2023-11-17T23:57:46.602Z,101815.00
